createdAt,value
2018-02-18T00:00:59.252Z,101828
2018-02-18T00:03:27.361Z,101825
2018-02-18T00:05:55.493Z,101827
2018-02-18T00:08:23.634Z,101823
2018-02-18T00:10:52.452Z,101823
2018-02-18T00:13:20.559Z,101836
2018-02-18T00:15:50.483Z,101834
2018-02-18T00:18:18.662Z,101830
2018-02-18T00:20:47.539Z,101833
2018-02-18T00:23:16.459Z,101841
2018-02-18T00:25:45.558Z,101833
2018-02-18T00:28:13.669Z,101836
2018-02-18T00:30:41.878Z,101829
2018-02-18T00:33:10.052Z,101841
2018-02-18T00:35:38.947Z,101850
2018-02-18T00:38:07.058Z,101869
2018-02-18T00:40:36.410Z,101847
2018-02-18T00:43:05.025Z,101850
2018-02-18T00:45:33.264Z,101836
2018-02-18T00:48:05.076Z,101832
2018-02-18T00:51:04.893Z,101839
2018-02-18T00:53:43.549Z,101846
2018-02-18T00:56:15.785Z,101846
2018-02-18T00:58:44.085Z,101838
2018-02-18T01:01:33.937Z,101846
2018-02-18T01:04:08.187Z,101845
2018-02-18T01:06:42.827Z,101857
2018-02-18T01:09:10.992Z,101847
2018-02-18T01:11:39.101Z,101854
2018-02-18T01:14:09.203Z,101856
2018-02-18T01:16:38.084Z,101857
2018-02-18T01:19:07.004Z,101865
2018-02-18T01:21:35.108Z,101865
2018-02-18T01:24:03.264Z,101874
2018-02-18T01:26:31.396Z,101877
2018-02-18T01:28:59.510Z,101864
2018-02-18T01:31:27.608Z,101870
2018-02-18T01:33:55.722Z,101859
2018-02-18T01:36:23.933Z,101875
2018-02-18T01:38:52.134Z,101877
2018-02-18T01:41:20.375Z,101882
2018-02-18T01:43:48.469Z,101876
2018-02-18T01:46:17.608Z,101872
2018-02-18T01:48:45.788Z,101878
2018-02-18T01:51:14.696Z,101884
2018-02-18T01:53:43.793Z,101875
2018-02-18T01:56:11.962Z,101876
2018-02-18T01:58:40.869Z,101878
2018-02-18T02:01:08.991Z,101864
2018-02-18T02:03:37.113Z,101871
2018-02-18T02:06:06.140Z,101872
2018-02-18T02:08:34.382Z,101877
2018-02-18T02:11:02.538Z,101862
2018-02-18T02:13:30.692Z,101874
2018-02-18T02:15:59.817Z,101865
2018-02-18T02:18:27.923Z,101870
2018-02-18T02:20:56.144Z,101862
2018-02-18T02:23:25.063Z,101876
2018-02-18T02:25:53.165Z,101874
2018-02-18T02:28:21.271Z,101870
2018-02-18T02:30:49.495Z,101873
2018-02-18T02:33:17.601Z,101862
2018-02-18T02:35:45.848Z,101870
2018-02-18T02:38:14.938Z,101870
2018-02-18T02:40:43.084Z,101862
2018-02-18T02:43:11.962Z,101864
2018-02-18T02:45:40.083Z,101859
2018-02-18T02:48:09.155Z,101875
2018-02-18T02:50:40.925Z,101861
2018-02-18T02:53:09.037Z,101871
2018-02-18T02:55:37.250Z,101859
2018-02-18T02:58:06.144Z,101871
2018-02-18T03:00:35.027Z,101865
2018-02-18T03:03:03.930Z,101853
2018-02-18T03:05:32.915Z,101851
2018-02-18T03:08:01.842Z,101862
2018-02-18T03:10:30.683Z,101852
2018-02-18T03:12:58.793Z,101847
2018-02-18T03:15:28.911Z,101851
2018-02-18T03:17:57.008Z,101849
2018-02-18T03:20:25.243Z,101848
2018-02-18T03:22:54.117Z,101842
2018-02-18T03:25:24.031Z,101840
2018-02-18T03:27:52.146Z,101835
2018-02-18T03:30:21.304Z,101833
2018-02-18T03:32:50.211Z,101837
2018-02-18T03:35:18.317Z,101837
2018-02-18T03:37:46.432Z,101825
2018-02-18T03:40:14.642Z,101834
2018-02-18T03:42:42.769Z,101839
2018-02-18T03:45:10.959Z,101839
2018-02-18T03:47:39.856Z,101843
2018-02-18T03:50:08.776Z,101838
2018-02-18T03:52:36.886Z,101836
2018-02-18T03:55:06.952Z,101837
2018-02-18T03:57:35.811Z,101836
2018-02-18T04:00:03.899Z,101843
2018-02-18T04:02:32.789Z,101843
2018-02-18T04:05:01.696Z,101846
2018-02-18T04:07:30.598Z,101840
2018-02-18T04:10:00.725Z,101839
2018-02-18T04:12:29.820Z,101848
2018-02-18T04:14:59.904Z,101843
2018-02-18T04:17:28.831Z,101847
2018-02-18T04:19:56.923Z,101839
2018-02-18T04:22:26.292Z,101835
2018-02-18T04:24:55.192Z,101847
2018-02-18T04:27:23.301Z,101850
2018-02-18T04:29:51.533Z,101858
2018-02-18T04:32:19.644Z,101855
2018-02-18T04:34:47.724Z,101856
2018-02-18T04:37:15.947Z,101863
2018-02-18T04:39:44.827Z,101869
2018-02-18T04:42:13.707Z,101862
2018-02-18T04:44:41.828Z,101771
2018-02-18T04:47:10.893Z,101861
2018-02-18T04:49:39.068Z,101854
2018-02-18T04:52:07.967Z,101856
2018-02-18T04:54:37.066Z,101863
2018-02-18T04:57:05.152Z,101861
2018-02-18T04:59:34.240Z,101876
2018-02-18T05:02:02.351Z,101870
2018-02-18T05:04:30.557Z,101871
2018-02-18T05:06:58.663Z,101870
2018-02-18T05:09:26.759Z,101874
2018-02-18T05:11:56.877Z,101871
2018-02-18T05:14:25.015Z,101873
2018-02-18T05:16:53.910Z,101873
2018-02-18T05:19:23.012Z,101874
2018-02-18T05:21:51.108Z,101872
2018-02-18T05:24:21.163Z,101874
2018-02-18T05:26:49.293Z,101875
2018-02-18T05:29:18.338Z,101865
2018-02-18T05:31:47.257Z,101862
2018-02-18T05:34:17.360Z,101860
2018-02-18T05:36:46.269Z,101873
2018-02-18T05:39:15.343Z,101871
2018-02-18T05:41:43.507Z,101870
2018-02-18T05:44:11.603Z,101869
2018-02-18T05:46:39.710Z,101876
2018-02-18T05:49:07.805Z,101869
2018-02-18T05:51:36.065Z,101874
2018-02-18T05:54:04.155Z,101874
2018-02-18T05:56:32.734Z,101874
2018-02-18T05:59:00.929Z,101874
2018-02-18T06:01:30.084Z,101878
2018-02-18T06:03:59.126Z,101871
2018-02-18T06:06:27.314Z,101879
2018-02-18T06:08:56.219Z,101874
2018-02-18T06:11:24.313Z,101874
2018-02-18T06:13:52.413Z,101876
2018-02-18T06:16:20.623Z,101870
2018-02-18T06:18:49.483Z,101865
2018-02-18T06:21:17.625Z,101872
2018-02-18T06:23:45.720Z,101858
2018-02-18T06:26:13.919Z,101854
2018-02-18T06:28:43.039Z,101859
2018-02-18T06:31:11.149Z,101856
2018-02-18T06:33:39.263Z,101869
2018-02-18T06:36:07.383Z,101772
2018-02-18T06:38:35.479Z,101880
2018-02-18T06:41:03.784Z,101878
2018-02-18T06:43:32.001Z,101870
2018-02-18T06:46:02.083Z,101870
2018-02-18T06:48:30.991Z,101874
2018-02-18T06:51:00.084Z,101880
2018-02-18T06:53:28.198Z,101882
2018-02-18T06:55:58.265Z,101893
2018-02-18T06:58:26.445Z,101893
2018-02-18T07:00:55.336Z,101882
2018-02-18T07:03:24.233Z,101888
2018-02-18T07:05:52.322Z,101883
2018-02-18T07:08:23.856Z,101889
2018-02-18T07:10:52.745Z,101895
2018-02-18T07:13:21.631Z,101880
2018-02-18T07:15:50.517Z,101889
2018-02-18T07:18:19.460Z,101882
2018-02-18T07:20:47.672Z,101895
2018-02-18T07:23:15.781Z,101886
2018-02-18T07:25:43.956Z,101897
2018-02-18T07:28:13.028Z,101898
2018-02-18T07:30:41.928Z,101897
2018-02-18T07:33:10.794Z,101901
2018-02-18T07:35:40.943Z,101884
2018-02-18T07:38:09.873Z,101888
2018-02-18T07:40:38.099Z,101896
2018-02-18T07:43:07.007Z,101890
2018-02-18T07:45:35.089Z,101890
2018-02-18T07:48:03.199Z,101892
2018-02-18T07:50:31.399Z,101882
2018-02-18T07:53:00.300Z,101883
2018-02-18T07:55:29.171Z,101878
2018-02-18T07:57:57.256Z,101884
2018-02-18T08:00:26.172Z,101886
2018-02-18T08:02:56.276Z,101884
2018-02-18T08:05:25.146Z,101879
2018-02-18T08:07:53.260Z,101887
2018-02-18T08:10:21.364Z,101873
2018-02-18T08:12:49.472Z,101873
2018-02-18T08:15:18.666Z,101879
2018-02-18T08:17:50.282Z,101872
2018-02-18T08:20:18.337Z,101897
2018-02-18T08:22:46.436Z,101891
2018-02-18T08:25:14.655Z,101888
2018-02-18T08:27:43.552Z,101886
2018-02-18T08:30:11.734Z,101894
2018-02-18T08:32:39.817Z,101889
2018-02-18T08:35:08.310Z,101882
2018-02-18T08:37:36.583Z,101891
2018-02-18T08:40:04.672Z,101885
2018-02-18T08:42:32.789Z,101885
2018-02-18T08:45:02.053Z,101885
2018-02-18T08:47:30.308Z,101888
2018-02-18T08:49:58.655Z,101884
2018-02-18T08:52:27.700Z,101887
2018-02-18T09:12:53.569Z,101878
2018-02-18T09:15:22.026Z,101893
2018-02-18T09:17:50.540Z,101890
2018-02-18T09:20:21.149Z,101893
2018-02-18T09:22:49.404Z,101892
2018-02-18T09:25:18.866Z,101894
2018-02-18T09:27:48.453Z,101897
2018-02-18T09:30:16.908Z,101901
2018-02-18T09:32:45.095Z,101904
2018-02-18T09:35:13.177Z,101893
2018-02-18T09:37:41.368Z,101899
2018-02-18T09:40:10.268Z,101895
2018-02-18T09:42:39.498Z,101907
2018-02-18T09:45:08.604Z,101901
2018-02-18T09:47:36.705Z,101906
2018-02-18T09:50:05.295Z,101906
2018-02-18T09:52:33.389Z,101906
2018-02-18T09:55:02.279Z,101901
2018-02-18T09:57:30.442Z,101910
2018-02-18T09:59:59.338Z,101897
2018-02-18T10:02:28.239Z,101907
2018-02-18T10:04:57.101Z,101899
2018-02-18T10:07:29.445Z,101910
2018-02-18T10:09:58.656Z,101905
2018-02-18T10:12:26.744Z,101900
2018-02-18T10:14:54.958Z,101912
2018-02-18T10:17:24.051Z,101919
2018-02-18T10:19:52.172Z,101934
2018-02-18T10:22:20.380Z,101916
2018-02-18T10:24:49.272Z,101922
2018-02-18T10:27:19.456Z,101923
2018-02-18T10:29:47.972Z,101931
2018-02-18T10:32:16.164Z,101929
2018-02-18T10:34:44.315Z,101922
2018-02-18T10:37:12.492Z,101908
2018-02-18T10:39:41.266Z,101915
2018-02-18T10:42:10.510Z,101909
2018-02-18T10:44:38.649Z,101912
2018-02-18T10:47:09.624Z,101926
2018-02-18T10:49:37.698Z,101917
2018-02-18T10:52:06.140Z,101911
2018-02-18T10:54:34.332Z,101917
2018-02-18T10:57:03.254Z,101922
2018-02-18T10:59:31.418Z,101917
2018-02-18T11:01:59.597Z,101912
2018-02-18T11:04:27.746Z,101916
2018-02-18T11:06:55.916Z,101911
2018-02-18T11:09:24.900Z,101915
2018-02-18T11:11:54.786Z,101907
2018-02-18T11:14:22.891Z,101905
2018-02-18T11:16:53.114Z,101906
2018-02-18T11:19:22.000Z,101907
2018-02-18T11:21:51.037Z,101902
2018-02-18T11:24:19.537Z,101888
2018-02-18T11:26:47.776Z,101898
2018-02-18T11:36:02.170Z,101897
2018-02-18T11:38:30.376Z,101889
2018-02-18T11:40:58.721Z,101882
2018-02-18T11:43:27.939Z,101883
2018-02-18T11:45:57.145Z,101893
2018-02-18T11:48:29.908Z,101893
2018-02-18T11:50:58.026Z,101892
2018-02-18T11:53:27.166Z,101899
2018-02-18T11:55:55.333Z,101885
2018-02-18T11:58:23.448Z,101889
2018-02-18T12:00:51.555Z,101889
2018-02-18T12:03:19.770Z,101877
2018-02-18T12:05:59.351Z,101871
2018-02-18T12:08:27.452Z,101864
2018-02-18T12:10:55.539Z,101855
2018-02-18T12:13:23.650Z,101854
2018-02-18T12:15:51.719Z,101855
2018-02-18T12:18:19.821Z,101855
2018-02-18T12:20:47.915Z,101847
2018-02-18T12:23:16.011Z,101870
2018-02-18T12:25:44.121Z,101863
2018-02-18T12:28:12.227Z,101850
2018-02-18T12:30:40.338Z,101850
2018-02-18T12:33:08.436Z,101850
2018-02-18T12:35:36.581Z,101840
2018-02-18T12:38:04.672Z,101837
2018-02-18T12:40:32.785Z,101827
2018-02-18T12:43:00.876Z,101829
2018-02-18T12:45:29.029Z,101817
2018-02-18T12:47:57.123Z,101818
2018-02-18T12:50:25.229Z,101826
2018-02-18T12:52:53.361Z,101826
2018-02-18T12:55:21.453Z,101815
2018-02-18T12:57:50.336Z,101822
2018-02-18T13:00:18.428Z,101823
2018-02-18T13:02:46.523Z,101811
2018-02-18T13:05:14.640Z,101815
2018-02-18T13:07:42.722Z,101814
2018-02-18T13:10:11.761Z,101804
2018-02-18T13:12:39.851Z,101800
2018-02-18T13:15:08.875Z,101798
2018-02-18T13:17:37.739Z,101800
2018-02-18T13:20:06.701Z,101797
2018-02-18T13:22:35.776Z,101793
2018-02-18T13:25:03.892Z,101798
2018-02-18T13:27:33.975Z,101795
2018-02-18T13:30:02.086Z,101801
2018-02-18T13:32:33.458Z,101785
2018-02-18T13:35:01.511Z,101800
2018-02-18T13:37:29.628Z,101790
2018-02-18T13:39:57.721Z,101795
2018-02-18T13:42:25.835Z,101784
2018-02-18T13:44:53.932Z,101782
2018-02-18T13:47:22.804Z,101778
2018-02-18T13:49:50.963Z,101788
2018-02-18T13:52:19.068Z,101779
2018-02-18T13:54:47.196Z,101774
2018-02-18T13:57:15.290Z,101777
2018-02-18T13:59:43.411Z,101773
2018-02-18T14:02:11.512Z,101768
2018-02-18T14:04:39.621Z,101770
2018-02-18T14:07:07.751Z,101781
2018-02-18T14:09:35.832Z,101774
2018-02-18T14:12:03.941Z,101781
2018-02-18T14:14:32.049Z,101779
2018-02-18T14:17:00.164Z,101773
2018-02-18T14:19:28.290Z,101769
2018-02-18T14:21:56.411Z,101768
2018-02-18T14:24:24.504Z,101764
2018-02-18T14:26:52.648Z,101770
2018-02-18T14:29:20.752Z,101766
2018-02-18T14:31:48.857Z,101760
2018-02-18T14:34:16.956Z,101757
2018-02-18T14:36:45.117Z,101757
2018-02-18T14:39:13.167Z,101761
2018-02-18T14:45:08.702Z,101737
2018-02-18T14:47:54.827Z,101734
2018-02-18T14:50:40.588Z,101739
2018-02-18T14:53:26.440Z,101752
2018-02-18T14:56:12.120Z,101732
2018-02-18T14:58:40.240Z,101738
2018-02-18T15:01:08.389Z,101729
2018-02-18T15:03:36.475Z,101746
2018-02-18T16:19:29.100Z,101722
2018-02-18T16:21:57.981Z,101722
2018-02-18T16:24:26.091Z,101718
2018-02-18T16:26:54.196Z,101707
2018-02-18T16:29:22.311Z,101715
2018-02-18T16:31:50.419Z,101717
2018-02-18T16:34:18.517Z,101707
2018-02-18T16:36:46.621Z,101708
2018-02-18T16:39:14.724Z,101705
2018-02-18T16:41:43.385Z,101702
2018-02-18T16:44:11.500Z,101703
2018-02-18T16:46:39.601Z,101709
2018-02-18T16:49:08.467Z,101710
2018-02-18T16:51:36.572Z,101708
2018-02-18T16:54:04.680Z,101709
2018-02-18T16:56:33.558Z,101719
2018-02-18T16:59:02.437Z,101715
2018-02-18T17:01:30.540Z,101711
2018-02-18T17:03:58.685Z,101708
2018-02-18T17:06:27.582Z,101697
2018-02-18T17:08:56.462Z,101690
2018-02-18T17:11:24.546Z,101707
2018-02-18T17:13:53.406Z,101700
2018-02-18T17:16:21.508Z,101698
2018-02-18T17:18:50.358Z,101700
2018-02-18T17:21:18.482Z,101692
2018-02-18T17:23:47.346Z,101705
2018-02-18T17:26:15.493Z,101696
2018-02-18T17:28:43.573Z,101696
2018-02-18T17:31:11.685Z,101702
2018-02-18T17:33:39.781Z,101701
2018-02-18T17:36:07.937Z,101692
2018-02-18T17:38:37.336Z,101695
2018-02-18T17:41:06.211Z,101690
2018-02-18T17:43:34.327Z,101692
2018-02-18T17:46:02.452Z,101682
2018-02-18T17:48:30.534Z,101692
2018-02-18T17:50:58.617Z,101694
2018-02-18T17:53:27.508Z,101705
2018-02-18T17:56:03.190Z,101699
2018-02-18T17:58:31.316Z,101700
2018-02-18T18:00:59.424Z,101706
2018-02-18T18:03:27.678Z,101700
2018-02-18T18:05:56.572Z,101704
2018-02-18T18:08:25.475Z,101700
2018-02-18T18:10:53.588Z,101699
2018-02-18T18:13:21.681Z,101694
2018-02-18T18:15:49.798Z,101694
2018-02-18T18:18:17.913Z,101705
2018-02-18T18:20:46.012Z,101702
2018-02-18T18:23:14.885Z,101699
2018-02-18T18:25:42.989Z,101697
2018-02-18T18:28:11.837Z,101699
2018-02-18T18:30:39.969Z,101703
2018-02-18T18:33:08.054Z,101696
2018-02-18T18:35:36.184Z,101701
2018-02-18T18:38:05.062Z,101697
2018-02-18T18:40:33.176Z,101699
2018-02-18T18:43:01.274Z,101695
2018-02-18T18:45:29.366Z,101692
2018-02-18T18:47:57.489Z,101697
2018-02-18T18:50:25.578Z,101699
2018-02-18T18:52:54.448Z,101692
2018-02-18T18:55:22.551Z,101685
2018-02-18T18:57:50.701Z,101693
2018-02-18T19:00:18.834Z,101687
2018-02-18T19:02:46.890Z,101683
2018-02-18T19:05:14.990Z,101684
2018-02-18T19:07:43.856Z,101677
2018-02-18T19:10:11.968Z,101682
2018-02-18T19:12:40.856Z,101684
2018-02-18T19:15:09.737Z,101684
2018-02-18T19:17:38.599Z,101686
2018-02-18T19:20:06.738Z,101684
2018-02-18T19:22:34.817Z,101682
2018-02-18T19:25:02.928Z,101678
2018-02-18T19:27:31.029Z,101680
2018-02-18T19:29:59.912Z,101678
2018-02-18T19:32:28.800Z,101675
2018-02-18T19:34:57.668Z,101677
2018-02-18T19:37:25.786Z,101672
2018-02-18T19:39:53.938Z,101680
2018-02-18T19:42:22.040Z,101678
2018-02-18T19:44:50.174Z,101680
2018-02-18T19:47:19.060Z,101683
2018-02-18T19:49:47.186Z,101682
2018-02-18T19:52:15.281Z,101684
2018-02-18T19:54:43.455Z,101682
2018-02-18T19:57:11.669Z,101690
2018-02-18T19:59:40.551Z,101678
2018-02-18T20:02:08.657Z,101690
2018-02-18T20:04:36.766Z,101682
2018-02-18T20:07:04.865Z,101684
2018-02-18T20:09:33.044Z,101692
2018-02-18T20:12:01.937Z,101685
2018-02-18T20:14:30.102Z,101692
2018-02-18T20:16:58.200Z,101682
2018-02-18T20:19:27.071Z,101679
2018-02-18T20:21:55.418Z,101670
2018-02-18T20:24:23.577Z,101682
2018-02-18T20:26:51.823Z,101676
2018-02-18T20:29:20.124Z,101682
2018-02-18T20:31:48.248Z,101674
2018-02-18T20:34:16.562Z,101666
2018-02-18T20:36:44.711Z,101670
2018-02-18T20:39:15.784Z,101662
2018-02-18T20:41:43.987Z,101665
2018-02-18T20:44:12.173Z,101652
2018-02-18T20:46:40.291Z,101656
2018-02-18T20:49:08.528Z,101651
2018-02-18T20:51:37.514Z,101651
2018-02-18T20:54:05.617Z,101664
2018-02-18T20:56:33.728Z,101669
2018-02-18T20:59:01.829Z,101657
2018-02-18T21:01:29.968Z,101656
2018-02-18T21:03:58.060Z,101662
2018-02-18T21:06:26.176Z,101659
2018-02-18T21:08:55.060Z,101656
2018-02-18T21:11:23.147Z,101632
2018-02-18T21:13:52.035Z,101638
2018-02-18T21:16:20.909Z,101639
2018-02-18T21:18:49.052Z,101639
2018-02-18T21:21:17.136Z,101631
2018-02-18T21:23:45.249Z,101635
2018-02-18T21:26:13.427Z,101637
2018-02-18T21:28:41.480Z,101637
2018-02-18T21:31:09.588Z,101630
2018-02-18T21:33:37.670Z,101633
2018-02-18T21:36:05.751Z,101626
2018-02-18T21:38:33.864Z,101632
2018-02-18T21:41:01.958Z,101621
2018-02-18T21:43:30.062Z,101613
2018-02-18T21:45:58.157Z,101609
2018-02-18T21:48:26.256Z,101607
2018-02-18T21:50:55.125Z,101598
2018-02-18T21:53:23.219Z,101604
2018-02-18T21:55:52.076Z,101593
2018-02-18T21:58:20.194Z,101598
2018-02-18T22:00:49.188Z,101604
2018-02-18T22:03:18.054Z,101599
2018-02-18T22:05:46.152Z,101607
2018-02-18T22:08:14.253Z,101601
2018-02-18T22:10:42.340Z,101607
2018-02-18T22:13:10.457Z,101604
2018-02-18T22:15:39.332Z,101616
2018-02-18T22:18:07.451Z,101620
2018-02-18T22:20:36.524Z,101626
2018-02-18T22:23:05.419Z,101618
2018-02-18T22:25:33.564Z,101621
2018-02-18T22:28:01.730Z,101622
2018-02-18T22:30:29.859Z,101527
2018-02-18T22:32:57.967Z,101618
2018-02-18T22:35:26.073Z,101622
2018-02-18T22:37:54.172Z,101612
2018-02-18T22:40:22.265Z,101613
2018-02-18T22:42:50.363Z,101620
2018-02-18T22:45:18.480Z,101615
2018-02-18T22:47:46.607Z,101624
2018-02-18T22:50:14.712Z,101623
2018-02-18T22:52:42.847Z,101625
2018-02-18T22:55:10.924Z,101620
2018-02-18T22:57:39.013Z,101608
2018-02-18T23:00:07.304Z,101600
2018-02-18T23:02:36.640Z,101604
2018-02-18T23:05:10.422Z,101608
2018-02-18T23:07:39.345Z,101600
2018-02-18T23:10:07.916Z,101603
2018-02-18T23:12:36.437Z,101612
2018-02-18T23:15:04.580Z,101604
2018-02-18T23:17:32.841Z,101607
2018-02-18T23:20:00.955Z,101600
2018-02-18T23:22:29.203Z,101595
2018-02-18T23:24:58.317Z,101595
2018-02-18T23:27:27.535Z,101592
2018-02-18T23:29:56.892Z,101594
2018-02-18T23:32:25.079Z,101587
2018-02-18T23:34:53.358Z,101590
2018-02-18T23:37:22.276Z,101595
2018-02-18T23:39:50.383Z,101589
2018-02-18T23:42:19.234Z,101596
2018-02-18T23:44:47.320Z,101599
2018-02-18T23:47:15.425Z,101608
2018-02-18T23:49:44.284Z,101601
2018-02-18T23:52:12.388Z,101588
2018-02-18T23:54:40.496Z,101580
2018-02-18T23:57:08.599Z,101591
2018-02-18T23:59:36.692Z,101585
